Flight Track Log - Related Links

Times and Time Zones

All times are in EDT time to prevent confusion due to time zone crossing. See the N30VP flight status page for this flight to view local times or setup timezone preferences in your user account.

Time Position Orientation Groundspeed Altitude Reporting Facility
EDT Latitude Longitude Course Direction KTS MPH feet Rate Location/Type
Mon 12:22:44 PM 26.2150 -81.8953 327° Northwest 281 323 8,100  Level Miami Center
Mon 12:23:44 PM 26.3011 -81.8806 North 296 341 11,500 3,300 Climbing Miami Center
Mon 12:24:44 PM 26.3894 -81.8633 10° North 318 366 14,700 3,000 Climbing Miami Center
Mon 12:25:44 PM 26.4881 -81.8442 10° North 334 384 17,500 2,700 Climbing Miami Center
Mon 12:26:44 PM 26.5931 -81.8256 North 361 415 20,100 2,350 Climbing Miami Center
Mon 12:27:00 PM 26.8276 -81.6108 347° North  Level Estimated
Mon 12:27:44 PM 26.6961 -81.8067 North 373 429 22,200  Level Miami Center
Mon 12:28:44 PM 26.8075 -81.7858 North 379 436 24,400 1,950 Climbing Miami Center
Mon 12:29:44 PM 26.9208 -81.7650 North 395 455 26,100 1,600 Climbing Miami Center
Mon 12:30:44 PM 27.0256 -81.7553 North 410 472 27,600 1,650 Climbing Miami Center
Mon 12:31:44 PM 27.1569 -81.7561 360° North 421 484 29,400 1,750 Climbing Miami Center
Mon 12:32:44 PM 27.2764 -81.7472 North 426 490 31,100 1,700 Climbing Miami Center
Mon 12:33:44 PM 27.3936 -81.7381 North 426 490 32,800 1,650 Climbing Miami Center
Mon 12:34:44 PM 27.4981 -81.7311 North 426 490 34,400 1,600 Climbing Miami Center
Mon 12:35:44 PM 27.6111 -81.7217 North 420 483 36,000 1,200 Climbing Miami Center
Mon 12:36:44 PM 27.7367 -81.7131 North 410 472 36,800 500 Climbing Miami Center
Mon 12:37:44 PM 27.8433 -81.7033 North 410 472 37,000 100 Climbing Miami Center
Mon 12:38:44 PM 27.9689 -81.6922 North 429 494 37,000  Level Miami Center
Mon 12:39:44 PM 28.0986 -81.6839 North 447 514 37,000  Level Miami Center
Mon 12:40:44 PM 28.2219 -81.6750 North 452 520 37,000  Level Miami Center
Mon 12:41:44 PM 28.3494 -81.6686 North 452 520 37,000  Level Miami Center
Mon 12:42:44 PM 28.4750 -81.6597 North 452 520 37,000  Level Miami Center
Mon 12:43:44 PM 28.6025 -81.6464 North 457 526 37,000  Level Miami Center
Mon 12:44:44 PM 28.7406 -81.6358 North 457 526 37,000  Level Miami Center
Mon 12:46:13 PM 28.9219 -81.6233 North 465 535 37,000  Level Jacksonville Center
Mon 12:47:13 PM 29.0514 -81.6122 North 465 535 37,000  Level Jacksonville Center
Mon 12:48:13 PM 29.1764 -81.6011 North 452 520 37,000  Level Jacksonville Center
Mon 12:49:13 PM 29.3122 -81.5922 North 445 512 37,000  Level Jacksonville Center
Mon 12:50:13 PM 29.4372 -81.5833 North 445 512 37,000  Level Jacksonville Center
Mon 12:51:13 PM 29.5667 -81.5744 North 451 519 37,000  Level Jacksonville Center
Mon 12:52:13 PM 29.6939 -81.5608 North 451 519 37,000  Level Jacksonville Center
Mon 12:53:13 PM 29.8189 -81.5519 North 456 525 37,000  Level Jacksonville Center
Mon 12:54:13 PM 29.9483 -81.5406 North 456 525 37,000  Level Jacksonville Center
Mon 12:55:13 PM 30.0756 -81.5317 North 462 532 37,000  Level Jacksonville Center
Mon 12:56:13 PM 30.2047 -81.5203 North 462 532 37,000  Level Jacksonville Center
Mon 12:57:13 PM 30.3319 -81.5086 North 462 532 37,000  Level Jacksonville Center
Mon 12:58:13 PM 30.4508 -81.4878 North 467 537 37,000  Level Jacksonville Center
Mon 12:59:13 PM 30.5781 -81.4689 North 467 537 37,000  Level Jacksonville Center
Mon 01:00:13 PM 30.7031 -81.4503 North 462 532 37,000  Level Jacksonville Center
Mon 01:01:13 PM 30.8344 -81.4264 North 462 532 37,000  Level Jacksonville Center
Mon 01:02:13 PM 30.9614 -81.4050 North 461 531 37,000  Level Jacksonville Center
Mon 01:03:13 PM 31.0906 -81.3836 North 461 531 37,000  Level Jacksonville Center
Mon 01:04:13 PM 31.2178 -81.3622 North 461 531 37,000  Level Jacksonville Center
Mon 01:05:13 PM 31.3572 -81.3356 North 461 531 37,000  Level Jacksonville Center
Mon 01:06:13 PM 31.4697 -81.3167 North 461 531 37,000  Level Jacksonville Center
Mon 01:07:13 PM 31.6136 -81.2922 North 467 537 37,000  Level Jacksonville Center
Mon 01:08:13 PM 31.7428 -81.2706 North 467 537 37,000  Level Jacksonville Center
Mon 01:09:13 PM 31.8594 -81.2489 North 467 537 37,000  Level Jacksonville Center
Mon 01:10:13 PM 31.9928 -81.2294 North 467 537 37,000  Level Jacksonville Center
Mon 01:11:13 PM 32.1239 -81.2047 North 467 537 37,000  Level Jacksonville Center
Mon 01:12:13 PM 32.2508 -81.1608 16° North 472 543 37,000  Level Jacksonville Center
Mon 01:13:13 PM 32.3836 -81.1114 17° North 472 543 37,000  Level Jacksonville Center
Mon 01:14:13 PM 32.5103 -81.0672 16° North 479 551 37,000  Level Jacksonville Center
Mon 01:15:13 PM 32.6411 -81.0153 18° North 479 551 37,000  Level Jacksonville Center
Mon 01:16:13 PM 32.7678 -80.9656 18° North 479 551 37,000  Level Jacksonville Center
Mon 01:17:13 PM 32.8983 -80.9158 18° North 479 551 37,000  Level Jacksonville Center
Mon 01:18:13 PM 33.0292 -80.8683 17° North 479 551 37,000  Level Jacksonville Center
Mon 01:19:13 PM 33.1578 -80.8183 18° North 479 551 37,000  Level Jacksonville Center
Mon 01:20:13 PM 33.2881 -80.7456 25° Northeast 484 557 37,000  Level Jacksonville Center
Mon 01:21:13 PM 33.4142 -80.6731 26° Northeast 494 568 37,000  Level Jacksonville Center
Mon 01:22:13 PM 33.5422 -80.5950 27° Northeast 499 574 37,000  Level Jacksonville Center
Mon 01:23:13 PM 33.6700 -80.5192 26° Northeast 505 581 37,000  Level Jacksonville Center
Mon 01:24:13 PM 33.7958 -80.4408 27° Northeast 505 581 37,000  Level Jacksonville Center
Mon 01:25:13 PM 33.9239 -80.3647 26° Northeast 505 581 37,000  Level Jacksonville Center
Mon 01:26:13 PM 34.0536 -80.2858 27° Northeast 505 581 37,000  Level Jacksonville Center
Mon 01:27:13 PM 34.1814 -80.2092 26° Northeast 505 581 37,000  Level Jacksonville Center
Mon 01:28:13 PM 34.3092 -80.1325 26° Northeast 505 581 37,000  Level Jacksonville Center
Mon 01:30:13 PM 34.5739 -79.9656 27° Northeast 540 621 37,000  Level Washington Center
Mon 01:31:14 PM 34.7017 -79.8892 26° Northeast 525 604 37,000  Level Washington Center
Mon 01:32:14 PM 34.8297 -79.8097 27° Northeast 519 597 37,000  Level Washington Center
Mon 01:33:11 PM 34.9578 -79.7303 27° Northeast 514 592 37,000  Level Washington Center
Mon 01:34:12 PM 35.0897 -79.6508 26° Northeast 514 592 37,000  Level Washington Center
Mon 01:35:13 PM 35.2194 -79.5811 24° Northeast 519 597 37,000  Level Washington Center
Mon 01:36:14 PM 35.3567 -79.5344 16° North 508 585 37,000  Level Washington Center
Mon 01:37:11 PM 35.4894 -79.4900 15° North 503 579 37,000 -305 Level Washington Center
Mon 01:38:12 PM 35.6142 -79.4450 16° North 503 579 36,400 -836 Descending Washington Center
Mon 01:39:13 PM 35.7639 -79.3933 16° North 508 585 35,300 -1,041 Descending Washington Center
Mon 01:40:13 PM 35.9031 -79.3461 15° North 508 585 34,300 -992 Descending Washington Center
Mon 01:41:14 PM 36.0425 -79.2936 17° North 508 585 33,300 -992 Descending Washington Center
Mon 01:42:14 PM 36.1817 -79.2461 15° North 513 590 32,300 -1,017 Descending Washington Center
Mon 01:43:12 PM 36.3167 -79.1958 17° North 513 590 31,300 -1,008 Descending Washington Center
Mon 01:44:13 PM 36.4497 -79.1450 17° North 502 578 30,300 -992 Descending Washington Center
Mon 01:45:13 PM 36.5886 -79.0997 15° North 502 578 29,300 -1,008 Descending Washington Center
Mon 01:46:12 PM 36.7239 -79.0461 18° North 502 578 28,300 -958 Descending Washington Center
Mon 01:47:12 PM 36.8478 -79.0153 11° North 502 578 27,400 -942 Descending Washington Center
Mon 01:48:13 PM 36.9886 -78.9800 11° North 502 578 26,400 -836 Descending Washington Center
Mon 01:49:14 PM 37.1208 -78.9469 11° North 491 565 25,700 -655 Descending Washington Center
Mon 01:50:12 PM 37.2661 -78.9089 12° North 486 559 25,100 -661 Descending Washington Center
Mon 01:51:12 PM 37.3983 -78.8781 10° North 486 559 24,400 -992 Descending Washington Center
Mon 01:52:13 PM 37.5242 -78.8467 11° North 475 547 23,100 -1,289 Descending Washington Center
Mon 01:53:13 PM 37.6336 -78.8172 12° North 459 528 21,800 -1,240 Descending Washington Center
Mon 01:54:14 PM 37.7553 -78.7883 11° North 445 512 20,600 -1,261 Descending Washington Center
Mon 01:55:12 PM 37.8750 -78.7567 12° North 440 506 19,300 -1,424 Descending Washington Center
Mon 01:56:12 PM 38.0072 -78.7225 12° North 440 506 17,800 -1,289 Descending Washington Center
Mon 01:57:13 PM 38.1228 -78.6931 11° North 435 501 16,700 -1,140 Descending Washington Center
Mon 01:58:13 PM 38.2403 -78.6636 11° North 429 494 15,500 -843 Descending Washington Center
Mon 01:59:14 PM 38.3494 -78.6336 12° North 416 479 15,000 -248 Descending Washington Center
Mon 02:00:14 PM 38.4647 -78.6119 North 411 473 15,000  Level Washington Center
Mon 02:01:14 PM 38.5700 -78.6533 343° North 395 455 15,000  Level Washington Center
Mon 02:02:12 PM 38.6822 -78.6739 352° North 401 461 15,000 -203 Level Washington Center
Mon 02:03:12 PM 38.7861 -78.6064 27° Northeast 401 461 14,600 -1,488 Descending Washington Center
Mon 02:04:13 PM 38.8756 -78.5275 34° Northeast 382 440 12,000 -2,083 Descending Washington Center
Mon 02:05:13 PM 38.9544 -78.4558 35° Northeast 367 422 10,400 -1,488 Descending Washington Center
Mon 02:06:14 PM 39.0139 -78.4047 34° Northeast 338 389 9,000 -1,377 Descending Washington Center

Login

Don't have an account? Register now (free) for customized features, flight alerts, and more!